Terminal Aerodrome Forecast
Issued by NWS

Home | Current Version | Previous Version | Text Only | Print | Product List | Glossary On
Versions: 1 2 3 4 5 6 7 8 9 10 11 12 13 14 15 16 17 18 19 20 21 22 23 24 25 26 27 28 29 30 31 32 33 34 35 36 37 38 39 40 41 42 43 44 45 46 47 48 49 50
000
FTUS44 KHGX 211124
TAFCXO
TAF
KCXO 211124Z 2112/2212 13009KT P6SM -RA VCSH SCT018 SCT090 BKN110
     FM211500 33009KT 5SM BR VCTS OVC009CB
     FM211700 36009KT 4SM SHRA BR VCTS OVC012CB
     FM212100 35008KT 4SM -RA BR OVC007
     FM220700 35005KT 2SM BR VCSH OVC003=

USA.gov is the U.S. government's official web portal to all federal, state and local government web resources and services.